sensor_id;sensor_type;location;lat;lon;timestamp;pressure;altitude;pressure_sealevel;temperature;humidity
24620;BME280;12763;55.802;37.404;2022-09-29T00:00:47;98327.94;;;11.53;93.16
24620;BME280;12763;55.802;37.404;2022-09-29T00:03:13;98336.88;;;11.44;93.23
24620;BME280;12763;55.802;37.404;2022-09-29T00:05:39;98340.47;;;11.44;93.29
24620;BME280;12763;55.802;37.404;2022-09-29T00:08:10;98346.50;;;11.58;92.93
24620;BME280;12763;55.802;37.404;2022-09-29T00:10:39;98340.72;;;11.59;92.78
24620;BME280;12763;55.802;37.404;2022-09-29T00:13:05;98347.00;;;11.71;92.46
24620;BME280;12763;55.802;37.404;2022-09-29T00:15:32;98341.13;;;11.68;92.62
24620;BME280;12763;55.802;37.404;2022-09-29T00:17:58;98345.97;;;11.77;91.96
24620;BME280;12763;55.802;37.404;2022-09-29T00:20:24;98345.41;;;11.75;92.00
24620;BME280;12763;55.802;37.404;2022-09-29T00:22:50;98340.63;;;11.71;91.82
24620;BME280;12763;55.802;37.404;2022-09-29T00:25:18;98343.28;;;11.83;92.20
24620;BME280;12763;55.802;37.404;2022-09-29T00:27:44;98341.63;;;11.82;91.81
24620;BME280;12763;55.802;37.404;2022-09-29T00:30:10;98344.13;;;11.83;91.47
24620;BME280;12763;55.802;37.404;2022-09-29T00:32:36;98351.28;;;11.79;91.91
24620;BME280;12763;55.802;37.404;2022-09-29T00:35:03;98352.81;;;11.92;91.27
24620;BME280;12763;55.802;37.404;2022-09-29T00:37:29;98359.88;;;11.83;91.31
24620;BME280;12763;55.802;37.404;2022-09-29T00:39:55;98367.09;;;11.84;91.92
24620;BME280;12763;55.802;37.404;2022-09-29T00:42:22;98363.25;;;11.85;91.81
24620;BME280;12763;55.802;37.404;2022-09-29T00:45:05;98361.28;;;11.85;91.65
24620;BME280;12763;55.802;37.404;2022-09-29T00:47:40;98368.38;;;11.76;92.29
24620;BME280;12763;55.802;37.404;2022-09-29T00:50:41;98375.47;;;11.72;92.34
24620;BME280;12763;55.802;37.404;2022-09-29T00:53:11;98375.38;;;11.67;92.29
24620;BME280;12763;55.802;37.404;2022-09-29T00:55:51;98373.63;;;11.77;91.95
24620;BME280;12763;55.802;37.404;2022-09-29T01:00:48;98380.50;;;11.75;91.90
24620;BME280;12763;55.802;37.404;2022-09-29T01:03:16;98384.94;;;11.59;92.85
24620;BME280;12763;55.802;37.404;2022-09-29T01:06:32;98385.59;;;11.66;92.60
24620;BME280;12763;55.802;37.404;2022-09-29T01:11:04;98389.56;;;11.70;91.80
24620;BME280;12763;55.802;37.404;2022-09-29T01:13:32;98380.63;;;11.68;92.13
24620;BME280;12763;55.802;37.404;2022-09-29T01:15:59;98375.31;;;11.78;91.61
24620;BME280;12763;55.802;37.404;2022-09-29T01:18:25;98371.75;;;11.83;91.10
24620;BME280;12763;55.802;37.404;2022-09-29T01:24:12;98372.03;;;11.82;91.19
24620;BME280;12763;55.802;37.404;2022-09-29T01:31:44;98376.53;;;11.88;90.55
24620;BME280;12763;55.802;37.404;2022-09-29T01:34:18;98379.41;;;11.76;91.00
24620;BME280;12763;55.802;37.404;2022-09-29T01:39:35;98378.28;;;11.94;90.11
24620;BME280;12763;55.802;37.404;2022-09-29T01:42:04;98381.94;;;11.99;89.63
24620;BME280;12763;55.802;37.404;2022-09-29T01:44:40;98384.97;;;11.98;90.26
24620;BME280;12763;55.802;37.404;2022-09-29T01:47:12;98395.53;;;12.01;90.09
24620;BME280;12763;55.802;37.404;2022-09-29T01:49:43;98403.03;;;12.05;89.74
24620;BME280;12763;55.802;37.404;2022-09-29T01:52:18;98403.94;;;12.11;89.59
24620;BME280;12763;55.802;37.404;2022-09-29T01:54:56;98403.94;;;12.11;89.50
24620;BME280;12763;55.802;37.404;2022-09-29T01:57:33;98403.38;;;12.09;89.43
24620;BME280;12763;55.802;37.404;2022-09-29T02:00:10;98389.56;;;12.09;89.48
24620;BME280;12763;55.802;37.404;2022-09-29T02:05:51;98400.41;;;12.15;89.50
24620;BME280;12763;55.802;37.404;2022-09-29T02:08:26;98409.66;;;12.04;89.63
24620;BME280;12763;55.802;37.404;2022-09-29T02:11:05;98405.03;;;12.10;89.36
24620;BME280;12763;55.802;37.404;2022-09-29T02:13:33;98409.88;;;12.19;89.69
24620;BME280;12763;55.802;37.404;2022-09-29T02:16:02;98407.56;;;12.11;89.14
24620;BME280;12763;55.802;37.404;2022-09-29T02:18:32;98404.41;;;12.03;89.51
24620;BME280;12763;55.802;37.404;2022-09-29T02:21:00;98401.06;;;12.01;89.72
24620;BME280;12763;55.802;37.404;2022-09-29T02:23:26;98402.13;;;12.00;89.58
24620;BME280;12763;55.802;37.404;2022-09-29T02:25:54;98396.66;;;12.05;89.45
24620;BME280;12763;55.802;37.404;2022-09-29T02:28:22;98396.16;;;12.08;89.11
24620;BME280;12763;55.802;37.404;2022-09-29T02:30:49;98400.00;;;12.07;89.13
24620;BME280;12763;55.802;37.404;2022-09-29T02:33:23;98406.53;;;12.17;88.92
24620;BME280;12763;55.802;37.404;2022-09-29T02:36:24;98406.78;;;12.16;89.20
24620;BME280;12763;55.802;37.404;2022-09-29T02:50:34;98411.59;;;12.04;88.67
24620;BME280;12763;55.802;37.404;2022-09-29T02:55:51;98422.84;;;11.97;89.00
24620;BME280;12763;55.802;37.404;2022-09-29T02:58:38;98413.03;;;12.06;88.53
24620;BME280;12763;55.802;37.404;2022-09-29T03:01:07;98413.19;;;12.00;88.48
24620;BME280;12763;55.802;37.404;2022-09-29T03:03:33;98416.00;;;11.83;88.84
24620;BME280;12763;55.802;37.404;2022-09-29T03:06:00;98413.63;;;11.92;88.45
24620;BME280;12763;55.802;37.404;2022-09-29T03:08:26;98406.63;;;11.84;88.89
24620;BME280;12763;55.802;37.404;2022-09-29T03:10:51;98414.22;;;11.94;88.48
24620;BME280;12763;55.802;37.404;2022-09-29T03:13:17;98410.03;;;11.91;88.57
24620;BME280;12763;55.802;37.404;2022-09-29T03:15:44;98409.19;;;11.91;88.19
24620;BME280;12763;55.802;37.404;2022-09-29T03:18:10;98423.91;;;11.96;87.95
24620;BME280;12763;55.802;37.404;2022-09-29T03:20:39;98423.69;;;11.98;88.04
24620;BME280;12763;55.802;37.404;2022-09-29T03:23:05;98427.53;;;11.97;88.00
24620;BME280;12763;55.802;37.404;2022-09-29T03:25:31;98429.72;;;11.95;88.00
24620;BME280;12763;55.802;37.404;2022-09-29T03:27:57;98424.13;;;11.90;87.97
24620;BME280;12763;55.802;37.404;2022-09-29T03:30:23;98427.53;;;11.97;87.87
24620;BME280;12763;55.802;37.404;2022-09-29T03:32:51;98431.91;;;11.93;87.66
24620;BME280;12763;55.802;37.404;2022-09-29T03:35:17;98428.81;;;11.89;87.80
24620;BME280;12763;55.802;37.404;2022-09-29T03:37:43;98433.75;;;11.87;87.73
24620;BME280;12763;55.802;37.404;2022-09-29T03:40:10;98443.47;;;11.90;87.89
24620;BME280;12763;55.802;37.404;2022-09-29T03:42:36;98440.03;;;11.83;87.95
24620;BME280;12763;55.802;37.404;2022-09-29T03:45:05;98451.50;;;11.91;87.40
24620;BME280;12763;55.802;37.404;2022-09-29T03:47:32;98454.59;;;11.95;87.27
24620;BME280;12763;55.802;37.404;2022-09-29T03:49:58;98453.59;;;12.01;86.77
24620;BME280;12763;55.802;37.404;2022-09-29T03:52:24;98451.31;;;11.98;87.04
24620;BME280;12763;55.802;37.404;2022-09-29T03:54:50;98450.63;;;12.07;86.38
24620;BME280;12763;55.802;37.404;2022-09-29T03:57:16;98454.66;;;12.00;86.70
24620;BME280;12763;55.802;37.404;2022-09-29T03:59:42;98456.28;;;11.96;86.57
24620;BME280;12763;55.802;37.404;2022-09-29T04:02:08;98459.13;;;12.01;86.63
24620;BME280;12763;55.802;37.404;2022-09-29T04:04:35;98469.69;;;11.87;86.76
24620;BME280;12763;55.802;37.404;2022-09-29T04:07:01;98460.56;;;11.87;86.49
24620;BME280;12763;55.802;37.404;2022-09-29T04:09:27;98454.31;;;11.96;86.38
24620;BME280;12763;55.802;37.404;2022-09-29T04:11:53;98457.19;;;12.01;85.88
24620;BME280;12763;55.802;37.404;2022-09-29T04:14:19;98449.88;;;12.12;85.45
24620;BME280;12763;55.802;37.404;2022-09-29T04:16:45;98457.19;;;12.01;85.37
24620;BME280;12763;55.802;37.404;2022-09-29T04:19:11;98463.19;;;12.15;85.02
24620;BME280;12763;55.802;37.404;2022-09-29T04:21:37;98456.06;;;12.19;84.77
24620;BME280;12763;55.802;37.404;2022-09-29T04:24:03;98456.63;;;12.21;84.42
24620;BME280;12763;55.802;37.404;2022-09-29T04:26:29;98454.53;;;12.28;84.31
24620;BME280;12763;55.802;37.404;2022-09-29T04:28:55;98449.59;;;12.13;84.51
24620;BME280;12763;55.802;37.404;2022-09-29T04:31:21;98469.69;;;12.25;83.95
24620;BME280;12763;55.802;37.404;2022-09-29T04:33:46;98464.47;;;12.29;84.00
24620;BME280;12763;55.802;37.404;2022-09-29T04:36:12;98455.59;;;12.27;83.56
24620;BME280;12763;55.802;37.404;2022-09-29T04:38:38;98460.28;;;12.26;83.51
24620;BME280;12763;55.802;37.404;2022-09-29T04:41:05;98455.22;;;12.40;83.33
24620;BME280;12763;55.802;37.404;2022-09-29T04:43:31;98464.44;;;12.46;82.72
24620;BME280;12763;55.802;37.404;2022-09-29T04:46:04;98459.38;;;12.59;82.75
24620;BME280;12763;55.802;37.404;2022-09-29T04:48:31;98467.13;;;12.62;82.78
24620;BME280;12763;55.802;37.404;2022-09-29T04:50:57;98458.13;;;12.72;82.63
24620;BME280;12763;55.802;37.404;2022-09-29T04:53:23;98459.94;;;12.83;82.65
24620;BME280;12763;55.802;37.404;2022-09-29T04:55:49;98457.41;;;12.81;82.68
24620;BME280;12763;55.802;37.404;2022-09-29T04:58:15;98465.47;;;12.83;82.74
24620;BME280;12763;55.802;37.404;2022-09-29T05:00:41;98469.09;;;12.83;82.84
24620;BME280;12763;55.802;37.404;2022-09-29T05:03:07;98462.50;;;12.89;82.58
24620;BME280;12763;55.802;37.404;2022-09-29T05:05:33;98463.41;;;12.95;82.62
24620;BME280;12763;55.802;37.404;2022-09-29T05:07:59;98462.88;;;12.98;82.46
24620;BME280;12763;55.802;37.404;2022-09-29T05:10:29;98453.28;;;13.06;82.30
24620;BME280;12763;55.802;37.404;2022-09-29T05:12:55;98473.88;;;13.15;82.02
24620;BME280;12763;55.802;37.404;2022-09-29T05:15:21;98476.78;;;13.03;82.11
24620;BME280;12763;55.802;37.404;2022-09-29T05:17:48;98486.25;;;12.85;82.06
24620;BME280;12763;55.802;37.404;2022-09-29T05:20:15;98494.44;;;12.75;82.49
24620;BME280;12763;55.802;37.404;2022-09-29T05:22:41;98502.88;;;12.85;81.88
24620;BME280;12763;55.802;37.404;2022-09-29T05:25:08;98501.69;;;12.81;81.64
24620;BME280;12763;55.802;37.404;2022-09-29T05:27:35;98506.22;;;12.87;81.48
24620;BME280;12763;55.802;37.404;2022-09-29T05:30:02;98506.66;;;12.58;82.55
24620;BME280;12763;55.802;37.404;2022-09-29T05:32:29;98511.50;;;12.67;82.30
24620;BME280;12763;55.802;37.404;2022-09-29T05:34:55;98509.09;;;12.54;82.10
24620;BME280;12763;55.802;37.404;2022-09-29T05:37:22;98501.75;;;12.65;81.66
24620;BME280;12763;55.802;37.404;2022-09-29T05:39:48;98504.47;;;12.60;81.63
24620;BME280;12763;55.802;37.404;2022-09-29T05:42:14;98505.88;;;12.62;81.37
24620;BME280;12763;55.802;37.404;2022-09-29T05:44:40;98509.25;;;12.64;81.34
24620;BME280;12763;55.802;37.404;2022-09-29T05:47:06;98509.09;;;12.54;81.37
24620;BME280;12763;55.802;37.404;2022-09-29T05:49:32;98508.66;;;12.62;80.96
24620;BME280;12763;55.802;37.404;2022-09-29T05:51:58;98510.22;;;12.53;81.22
24620;BME280;12763;55.802;37.404;2022-09-29T05:54:24;98512.97;;;12.75;80.58
24620;BME280;12763;55.802;37.404;2022-09-29T05:56:52;98516.66;;;12.59;80.89
24620;BME280;12763;55.802;37.404;2022-09-29T05:59:18;98513.88;;;12.59;80.99
24620;BME280;12763;55.802;37.404;2022-09-29T06:01:44;98513.81;;;12.54;81.14
24620;BME280;12763;55.802;37.404;2022-09-29T06:04:13;98520.75;;;12.56;80.85
24620;BME280;12763;55.802;37.404;2022-09-29T06:06:39;98522.66;;;12.34;81.80
24620;BME280;12763;55.802;37.404;2022-09-29T06:09:06;98524.16;;;12.42;81.93
24620;BME280;12763;55.802;37.404;2022-09-29T06:11:32;98520.59;;;12.46;81.87
24620;BME280;12763;55.802;37.404;2022-09-29T06:13:59;98522.16;;;12.37;82.20
24620;BME280;12763;55.802;37.404;2022-09-29T06:16:29;98524.28;;;12.52;82.26
24620;BME280;12763;55.802;37.404;2022-09-29T06:18:58;98522.47;;;12.62;82.30
24620;BME280;12763;55.802;37.404;2022-09-29T06:21:26;98515.34;;;12.66;82.50
24620;BME280;12763;55.802;37.404;2022-09-29T06:23:54;98512.91;;;12.91;81.91
24620;BME280;12763;55.802;37.404;2022-09-29T06:26:21;98504.94;;;12.95;81.87
24620;BME280;12763;55.802;37.404;2022-09-29T06:28:47;98520.56;;;12.84;82.52
24620;BME280;12763;55.802;37.404;2022-09-29T06:31:18;98510.81;;;13.04;82.36
24620;BME280;12763;55.802;37.404;2022-09-29T06:33:45;98502.84;;;13.29;81.67
24620;BME280;12763;55.802;37.404;2022-09-29T06:36:19;98509.03;;;13.36;81.68
24620;BME280;12763;55.802;37.404;2022-09-29T06:39:05;98515.81;;;13.23;81.83
24620;BME280;12763;55.802;37.404;2022-09-29T06:41:32;98519.56;;;13.66;81.01
24620;BME280;12763;55.802;37.404;2022-09-29T06:44:00;98510.81;;;13.79;80.39
24620;BME280;12763;55.802;37.404;2022-09-29T06:46:26;98525.00;;;13.82;80.08
24620;BME280;12763;55.802;37.404;2022-09-29T06:48:53;98524.91;;;13.72;80.46
24620;BME280;12763;55.802;37.404;2022-09-29T06:51:20;98535.88;;;13.62;80.67
24620;BME280;12763;55.802;37.404;2022-09-29T06:53:48;98521.91;;;13.79;80.17
24620;BME280;12763;55.802;37.404;2022-09-29T06:56:14;98516.44;;;13.57;81.19
24620;BME280;12763;55.802;37.404;2022-09-29T06:58:40;98533.91;;;13.58;81.02
24620;BME280;12763;55.802;37.404;2022-09-29T07:01:06;98540.28;;;13.58;80.67
24620;BME280;12763;55.802;37.404;2022-09-29T07:03:33;98543.22;;;13.46;81.24
24620;BME280;12763;55.802;37.404;2022-09-29T07:06:04;98546.59;;;13.27;82.20
24620;BME280;12763;55.802;37.404;2022-09-29T07:08:30;98550.66;;;12.98;83.47
24620;BME280;12763;55.802;37.404;2022-09-29T07:10:57;98549.66;;;13.25;82.59
24620;BME280;12763;55.802;37.404;2022-09-29T07:13:24;98551.00;;;13.49;81.94
24620;BME280;12763;55.802;37.404;2022-09-29T07:15:51;98547.91;;;13.46;82.23
24620;BME280;12763;55.802;37.404;2022-09-29T07:18:19;98551.94;;;13.33;82.67
24620;BME280;12763;55.802;37.404;2022-09-29T07:20:44;98555.00;;;13.37;82.63
24620;BME280;12763;55.802;37.404;2022-09-29T07:23:10;98556.00;;;13.47;82.38
24620;BME280;12763;55.802;37.404;2022-09-29T07:25:36;98557.50;;;13.33;83.13
24620;BME280;12763;55.802;37.404;2022-09-29T07:28:02;98565.56;;;13.40;83.18
24620;BME280;12763;55.802;37.404;2022-09-29T07:30:28;98559.53;;;13.43;83.37
24620;BME280;12763;55.802;37.404;2022-09-29T07:32:56;98564.03;;;13.49;83.49
24620;BME280;12763;55.802;37.404;2022-09-29T07:35:23;98567.50;;;13.61;83.38
24620;BME280;12763;55.802;37.404;2022-09-29T07:37:53;98569.66;;;13.59;83.78
24620;BME280;12763;55.802;37.404;2022-09-29T07:40:21;98572.97;;;13.83;83.00
24620;BME280;12763;55.802;37.404;2022-09-29T07:42:47;98568.84;;;13.85;82.91
24620;BME280;12763;55.802;37.404;2022-09-29T07:45:15;98573.75;;;13.78;83.15
24620;BME280;12763;55.802;37.404;2022-09-29T07:47:42;98579.25;;;13.73;83.32
24620;BME280;12763;55.802;37.404;2022-09-29T07:50:09;98572.25;;;13.97;83.08
24620;BME280;12763;55.802;37.404;2022-09-29T07:52:35;98579.00;;;14.06;82.79
24620;BME280;12763;55.802;37.404;2022-09-29T07:55:03;98578.66;;;14.30;82.33
24620;BME280;12763;55.802;37.404;2022-09-29T07:57:30;98583.56;;;14.49;81.67
24620;BME280;12763;55.802;37.404;2022-09-29T07:59:56;98580.31;;;14.31;82.02
24620;BME280;12763;55.802;37.404;2022-09-29T08:02:24;98589.41;;;14.21;82.13
24620;BME280;12763;55.802;37.404;2022-09-29T08:04:50;98597.16;;;14.19;82.07
24620;BME280;12763;55.802;37.404;2022-09-29T08:07:16;98603.13;;;14.06;82.40
24620;BME280;12763;55.802;37.404;2022-09-29T08:09:42;98617.25;;;13.51;84.46
24620;BME280;12763;55.802;37.404;2022-09-29T08:12:08;98612.97;;;13.65;84.67
24620;BME280;12763;55.802;37.404;2022-09-29T08:14:36;98607.69;;;13.90;83.89
24620;BME280;12763;55.802;37.404;2022-09-29T08:17:04;98613.41;;;14.05;83.94
24620;BME280;12763;55.802;37.404;2022-09-29T08:19:29;98611.50;;;14.11;83.71
24620;BME280;12763;55.802;37.404;2022-09-29T08:21:55;98618.13;;;14.05;83.70
24620;BME280;12763;55.802;37.404;2022-09-29T08:24:21;98620.00;;;13.99;84.51
24620;BME280;12763;55.802;37.404;2022-09-29T08:26:48;98626.19;;;14.11;84.11
24620;BME280;12763;55.802;37.404;2022-09-29T08:29:15;98631.06;;;14.26;83.44
24620;BME280;12763;55.802;37.404;2022-09-29T08:31:40;98629.38;;;14.25;83.39
24620;BME280;12763;55.802;37.404;2022-09-29T08:34:08;98625.19;;;14.23;83.55
24620;BME280;12763;55.802;37.404;2022-09-29T08:36:34;98632.28;;;14.08;84.13
24620;BME280;12763;55.802;37.404;2022-09-29T08:39:01;98637.41;;;14.22;83.76
24620;BME280;12763;55.802;37.404;2022-09-29T08:44:19;98641.19;;;14.10;84.78
24620;BME280;12763;55.802;37.404;2022-09-29T08:46:53;98641.34;;;14.31;83.88
24620;BME280;12763;55.802;37.404;2022-09-29T08:49:24;98647.00;;;14.36;83.79
24620;BME280;12763;55.802;37.404;2022-09-29T08:51:57;98652.13;;;14.22;84.65
24620;BME280;12763;55.802;37.404;2022-09-29T08:54:41;98646.56;;;14.22;85.12
24620;BME280;12763;55.802;37.404;2022-09-29T08:57:15;98645.84;;;14.32;84.44
24620;BME280;12763;55.802;37.404;2022-09-29T08:59:55;98656.94;;;14.32;84.56
24620;BME280;12763;55.802;37.404;2022-09-29T09:05:43;98656.53;;;14.50;84.42
24620;BME280;12763;55.802;37.404;2022-09-29T09:08:49;98664.25;;;14.43;84.17
24620;BME280;12763;55.802;37.404;2022-09-29T09:16:39;98676.16;;;14.38;84.46
24620;BME280;12763;55.802;37.404;2022-09-29T09:21:50;98673.38;;;14.38;84.51
24620;BME280;12763;55.802;37.404;2022-09-29T09:24:35;98677.56;;;14.41;84.47
24620;BME280;12763;55.802;37.404;2022-09-29T09:27:04;98683.97;;;14.20;85.48
24620;BME280;12763;55.802;37.404;2022-09-29T09:29:36;98680.19;;;14.31;85.48
24620;BME280;12763;55.802;37.404;2022-09-29T09:32:27;98683.31;;;14.34;85.24
24620;BME280;12763;55.802;37.404;2022-09-29T09:34:59;98689.78;;;14.72;83.80
24620;BME280;12763;55.802;37.404;2022-09-29T09:37:32;98684.88;;;14.52;84.77
24620;BME280;12763;55.802;37.404;2022-09-29T09:40:25;98683.44;;;14.81;84.03
24620;BME280;12763;55.802;37.404;2022-09-29T09:45:36;98686.25;;;14.49;84.71
24620;BME280;12763;55.802;37.404;2022-09-29T09:48:30;98693.81;;;14.91;83.97
24620;BME280;12763;55.802;37.404;2022-09-29T09:51:00;98684.63;;;15.32;82.04
24620;BME280;12763;55.802;37.404;2022-09-29T09:56:18;98695.66;;;15.22;81.59
24620;BME280;12763;55.802;37.404;2022-09-29T10:01:39;98689.91;;;15.39;81.10
24620;BME280;12763;55.802;37.404;2022-09-29T10:04:11;98698.59;;;15.00;81.42
24620;BME280;12763;55.802;37.404;2022-09-29T10:06:37;98688.03;;;15.02;81.65
24620;BME280;12763;55.802;37.404;2022-09-29T10:09:04;98688.66;;;15.09;81.36
24620;BME280;12763;55.802;37.404;2022-09-29T10:11:30;98693.69;;;15.12;80.86
24620;BME280;12763;55.802;37.404;2022-09-29T10:14:10;98694.66;;;15.38;80.61
24620;BME280;12763;55.802;37.404;2022-09-29T10:16:55;98705.13;;;15.21;80.78
24620;BME280;12763;55.802;37.404;2022-09-29T10:19:59;98713.66;;;15.09;80.90
24620;BME280;12763;55.802;37.404;2022-09-29T10:22:31;98724.44;;;15.06;81.10
24620;BME280;12763;55.802;37.404;2022-09-29T10:27:35;98721.53;;;14.86;82.11
24620;BME280;12763;55.802;37.404;2022-09-29T10:30:19;98730.19;;;14.94;81.78
24620;BME280;12763;55.802;37.404;2022-09-29T10:32:46;98724.41;;;14.96;81.67
24620;BME280;12763;55.802;37.404;2022-09-29T10:35:21;98733.69;;;15.16;81.13
24620;BME280;12763;55.802;37.404;2022-09-29T10:38:03;98742.16;;;15.37;80.48
24620;BME280;12763;55.802;37.404;2022-09-29T10:40:30;98742.41;;;15.30;80.42
24620;BME280;12763;55.802;37.404;2022-09-29T10:42:56;98753.16;;;15.16;80.93
24620;BME280;12763;55.802;37.404;2022-09-29T10:45:27;98760.19;;;14.92;81.88
24620;BME280;12763;55.802;37.404;2022-09-29T10:50:29;98768.41;;;14.77;82.56
24620;BME280;12763;55.802;37.404;2022-09-29T10:52:57;98773.44;;;14.80;82.91
24620;BME280;12763;55.802;37.404;2022-09-29T10:55:32;98783.03;;;14.99;82.30
24620;BME280;12763;55.802;37.404;2022-09-29T10:58:03;98773.56;;;14.95;82.15
24620;BME280;12763;55.802;37.404;2022-09-29T11:00:37;98762.09;;;14.87;82.57
24620;BME280;12763;55.802;37.404;2022-09-29T11:03:32;98762.13;;;15.28;81.71
24620;BME280;12763;55.802;37.404;2022-09-29T11:06:04;98775.47;;;15.26;81.21
24620;BME280;12763;55.802;37.404;2022-09-29T11:08:30;98780.78;;;15.33;80.89
24620;BME280;12763;55.802;37.404;2022-09-29T11:11:06;98780.00;;;15.38;80.70
24620;BME280;12763;55.802;37.404;2022-09-29T11:13:39;98770.63;;;15.12;81.72
24620;BME280;12763;55.802;37.404;2022-09-29T11:16:16;98784.59;;;15.22;80.98
24620;BME280;12763;55.802;37.404;2022-09-29T11:18:49;98783.81;;;15.26;81.41
24620;BME280;12763;55.802;37.404;2022-09-29T11:32:32;98796.34;;;15.71;79.08
24620;BME280;12763;55.802;37.404;2022-09-29T11:38:14;98801.19;;;17.84;73.78
24620;BME280;12763;55.802;37.404;2022-09-29T11:47:05;98791.47;;;21.13;60.12
24620;BME280;12763;55.802;37.404;2022-09-29T11:49:26;98799.25;;;19.88;61.61
24620;BME280;12763;55.802;37.404;2022-09-29T12:00:07;98824.38;;;17.44;69.03
24620;BME280;12763;55.802;37.404;2022-09-29T12:06:19;98841.72;;;16.33;71.28
24620;BME280;12763;55.802;37.404;2022-09-29T12:14:56;98844.94;;;16.10;72.86
24620;BME280;12763;55.802;37.404;2022-09-29T12:17:27;98845.56;;;16.22;72.78
24620;BME280;12763;55.802;37.404;2022-09-29T12:20:07;98839.06;;;16.54;72.21
24620;BME280;12763;55.802;37.404;2022-09-29T12:22:42;98841.38;;;16.87;70.99
24620;BME280;12763;55.802;37.404;2022-09-29T12:25:18;98837.69;;;16.61;71.60
24620;BME280;12763;55.802;37.404;2022-09-29T12:27:48;98836.78;;;16.51;71.96
24620;BME280;12763;55.802;37.404;2022-09-29T12:30:27;98845.94;;;16.46;72.14
24620;BME280;12763;55.802;37.404;2022-09-29T12:33:39;98842.38;;;16.56;72.27
24620;BME280;12763;55.802;37.404;2022-09-29T12:44:52;98841.75;;;20.85;61.61
24620;BME280;12763;55.802;37.404;2022-09-29T12:47:27;98855.06;;;21.17;58.98
24620;BME280;12763;55.802;37.404;2022-09-29T12:50:10;98850.91;;;19.72;59.09
24620;BME280;12763;55.802;37.404;2022-09-29T12:52:46;98862.47;;;18.88;63.88
24620;BME280;12763;55.802;37.404;2022-09-29T12:55:21;98858.56;;;18.25;66.04
24620;BME280;12763;55.802;37.404;2022-09-29T12:57:51;98856.44;;;17.82;67.39
24620;BME280;12763;55.802;37.404;2022-09-29T13:00:21;98855.34;;;17.73;67.69
24620;BME280;12763;55.802;37.404;2022-09-29T13:08:27;98867.88;;;17.50;68.63
24620;BME280;12763;55.802;37.404;2022-09-29T13:16:37;98868.16;;;17.43;68.32
24620;BME280;12763;55.802;37.404;2022-09-29T13:27:21;98884.31;;;17.06;70.24
24620;BME280;12763;55.802;37.404;2022-09-29T13:30:13;98882.31;;;16.91;71.28
24620;BME280;12763;55.802;37.404;2022-09-29T13:32:47;98887.59;;;16.88;71.65
24620;BME280;12763;55.802;37.404;2022-09-29T13:35:20;98878.69;;;16.81;72.15
24620;BME280;12763;55.802;37.404;2022-09-29T13:37:52;98891.47;;;16.77;71.95
24620;BME280;12763;55.802;37.404;2022-09-29T13:40:25;98894.56;;;16.85;71.86
24620;BME280;12763;55.802;37.404;2022-09-29T13:42:54;98901.53;;;16.83;72.24
24620;BME280;12763;55.802;37.404;2022-09-29T13:47:56;98893.69;;;16.70;72.71
24620;BME280;12763;55.802;37.404;2022-09-29T13:50:44;98897.59;;;16.74;73.02
24620;BME280;12763;55.802;37.404;2022-09-29T13:58:33;98904.53;;;16.71;73.29
24620;BME280;12763;55.802;37.404;2022-09-29T14:01:03;98903.16;;;16.69;73.61
24620;BME280;12763;55.802;37.404;2022-09-29T14:03:37;98914.84;;;16.71;73.86
24620;BME280;12763;55.802;37.404;2022-09-29T14:06:22;98916.28;;;16.78;73.49
24620;BME280;12763;55.802;37.404;2022-09-29T14:08:58;98908.78;;;16.89;72.92
24620;BME280;12763;55.802;37.404;2022-09-29T14:11:46;98918.31;;;17.03;72.42
24620;BME280;12763;55.802;37.404;2022-09-29T14:14:29;98918.31;;;17.13;72.40
24620;BME280;12763;55.802;37.404;2022-09-29T14:17:02;98923.59;;;16.99;72.49
24620;BME280;12763;55.802;37.404;2022-09-29T14:19:34;98916.03;;;16.90;72.78
24620;BME280;12763;55.802;37.404;2022-09-29T14:22:04;98910.72;;;16.88;73.35
24620;BME280;12763;55.802;37.404;2022-09-29T14:27:31;98917.22;;;17.29;72.94
24620;BME280;12763;55.802;37.404;2022-09-29T14:30:20;98923.88;;;17.13;72.91
24620;BME280;12763;55.802;37.404;2022-09-29T14:33:08;98923.03;;;16.92;73.34
24620;BME280;12763;55.802;37.404;2022-09-29T14:35:38;98926.88;;;16.81;73.77
24620;BME280;12763;55.802;37.404;2022-09-29T14:40:34;98932.06;;;17.60;72.45
24620;BME280;12763;55.802;37.404;2022-09-29T14:43:11;98920.28;;;18.18;70.41
24620;BME280;12763;55.802;37.404;2022-09-29T14:58:49;98942.22;;;16.84;71.39
24620;BME280;12763;55.802;37.404;2022-09-29T15:01:30;98940.66;;;16.51;73.02
24620;BME280;12763;55.802;37.404;2022-09-29T15:04:17;98937.16;;;16.24;73.96
24620;BME280;12763;55.802;37.404;2022-09-29T15:06:50;98957.94;;;16.06;74.61
24620;BME280;12763;55.802;37.404;2022-09-29T15:09:19;98956.66;;;15.82;75.28
24620;BME280;12763;55.802;37.404;2022-09-29T15:11:56;98958.25;;;15.73;75.76
24620;BME280;12763;55.802;37.404;2022-09-29T15:14:30;98963.75;;;15.68;76.09
24620;BME280;12763;55.802;37.404;2022-09-29T15:20:02;98972.88;;;15.63;76.66
24620;BME280;12763;55.802;37.404;2022-09-29T15:25:35;98970.59;;;15.55;76.98
24620;BME280;12763;55.802;37.404;2022-09-29T15:28:14;98974.09;;;15.46;77.17
24620;BME280;12763;55.802;37.404;2022-09-29T15:30:43;98969.88;;;15.38;77.72
24620;BME280;12763;55.802;37.404;2022-09-29T15:33:17;98982.88;;;15.33;78.25
24620;BME280;12763;55.802;37.404;2022-09-29T15:35:47;98993.34;;;15.25;78.85
24620;BME280;12763;55.802;37.404;2022-09-29T15:38:26;98989.56;;;15.37;78.74
24620;BME280;12763;55.802;37.404;2022-09-29T15:41:03;98992.53;;;15.30;79.48
24620;BME280;12763;55.802;37.404;2022-09-29T15:43:38;98983.97;;;15.32;79.72
24620;BME280;12763;55.802;37.404;2022-09-29T15:51:31;98993.75;;;15.12;80.17
24620;BME280;12763;55.802;37.404;2022-09-29T15:53:58;99000.41;;;15.11;80.49